San Angelo, Texas
Current Conditions -  °F | °C
As of 10:51 PM on Saturday 25 Oct 2014 (Local Time) from KSJT Reporting Station
Clear Clear  
Wind Chill: 67°   Ceiling: Unl
Heat Index: 67°   Visibility: 10mi
Dew Point: 51°   Wind: 7mph
Humidity: 57%   Direction: 190°S
Pressure: 30.1"   Gusts: NA
Location:  31.46°N, 100.44°W
Report Text: KSJT 260351Z AUTO 19006KT 10SM CLR 19/11 A3010 RMK AO2 SLP175 T01940106
Loading
Personal Weather Stations






























Interactive Weather Map
Tropical Storm Tracking
New forecast layout! Learn more

10-Day Weather Forecast

Advertisements
Track Severe Weather on mobile